KBZN/BZN METAR and TAF weather

Enter ICAO airport designator
Station Type Date Time Source
KBZN METAR 2019/08/25 17:56 UTC NOAA

KBZN 251756Z 32005KT 10SM CLR 22/05 A2995 RMK AO2 SLP105 T02170050 10222 20083 58012


Station Type Date Time Source
KBZN Decoded METAR 2019/08/25 17:56 UTC NOAA

Station name not available
Aug 25, 2019 - 01:56 PM EDT / 2019.08.25 1756 UTC
Wind: from the NW (320 degrees) at 6 MPH (5 KT):0
Visibility: 10 mile(s):0
Sky conditions: clear
Temperature: 71.1 F (21.7 C)
Dew Point: 41.0 F (5.0 C)
Relative Humidity: 33%
Pressure (altimeter): 29.95 in. Hg (1014 hPa)
Pressure tendency: 0.04 inches (1.2 hPa) lower than three hours ago
ob: KBZN 251756Z 32005KT 10SM CLR 22/05 A2995 RMK AO2 SLP105 T02170050 10222 20083 58012
cycle: 18

Station Type Date Time Source
KBZN TAF 2019/08/25 18:22 UTC NOAA

TAF KBZN 251720Z 2518/2624 VRB06KT P6SM FEW100 SCT250
FM252000 30012KT P6SM BKN100
FM260200 32010KT P6SM SCT080 BKN250
FM260600 VRB04KT P6SM FEW060 FEW250

Example: see airport list